sensor_id;sensor_type;location;lat;lon;timestamp;temperature;humidity
68865;DHT22;55898;52.196;4.420;2022-07-12T00:01:20;20.84;69.03
68865;DHT22;55898;52.196;4.420;2022-07-12T00:03:46;20.77;69.21
68865;DHT22;55898;52.196;4.420;2022-07-12T00:06:12;20.73;69.25
68865;DHT22;55898;52.196;4.420;2022-07-12T00:08:37;20.62;69.43
68865;DHT22;55898;52.196;4.420;2022-07-12T00:11:04;20.57;69.49
68865;DHT22;55898;52.196;4.420;2022-07-12T00:13:30;20.51;69.63
68865;DHT22;55898;52.196;4.420;2022-07-12T00:15:56;20.48;69.82
68865;DHT22;55898;52.196;4.420;2022-07-12T00:18:23;20.42;70.06
68865;DHT22;55898;52.196;4.420;2022-07-12T00:20:48;20.41;70.05
68865;DHT22;55898;52.196;4.420;2022-07-12T00:23:14;20.32;70.23
68865;DHT22;55898;52.196;4.420;2022-07-12T00:25:39;20.28;70.48
68865;DHT22;55898;52.196;4.420;2022-07-12T00:28:06;20.25;70.62
68865;DHT22;55898;52.196;4.420;2022-07-12T00:30:32;20.18;70.80
68865;DHT22;55898;52.196;4.420;2022-07-12T00:32:57;20.14;70.95
68865;DHT22;55898;52.196;4.420;2022-07-12T00:35:23;20.10;71.06
68865;DHT22;55898;52.196;4.420;2022-07-12T00:37:48;20.05;71.30
68865;DHT22;55898;52.196;4.420;2022-07-12T00:40:13;20.03;71.29
68865;DHT22;55898;52.196;4.420;2022-07-12T00:42:39;20.00;71.26
68865;DHT22;55898;52.196;4.420;2022-07-12T00:45:07;20.01;71.36
68865;DHT22;55898;52.196;4.420;2022-07-12T00:47:40;20.00;71.50
68865;DHT22;55898;52.196;4.420;2022-07-12T00:50:13;20.03;71.47
68865;DHT22;55898;52.196;4.420;2022-07-12T00:52:40;20.08;71.49
68865;DHT22;55898;52.196;4.420;2022-07-12T00:55:07;20.12;71.45
68865;DHT22;55898;52.196;4.420;2022-07-12T00:57:34;20.14;71.51
68865;DHT22;55898;52.196;4.420;2022-07-12T01:00:01;20.20;71.56
68865;DHT22;55898;52.196;4.420;2022-07-12T01:02:27;20.20;71.43
68865;DHT22;55898;52.196;4.420;2022-07-12T01:04:55;20.22;71.40
68865;DHT22;55898;52.196;4.420;2022-07-12T01:07:21;20.24;71.33
68865;DHT22;55898;52.196;4.420;2022-07-12T01:09:49;20.26;71.19
68865;DHT22;55898;52.196;4.420;2022-07-12T01:12:15;20.22;71.30
68865;DHT22;55898;52.196;4.420;2022-07-12T01:14:41;20.22;71.29
68865;DHT22;55898;52.196;4.420;2022-07-12T01:17:07;20.26;71.12
68865;DHT22;55898;52.196;4.420;2022-07-12T01:19:33;20.31;71.03
68865;DHT22;55898;52.196;4.420;2022-07-12T01:22:01;20.31;70.98
68865;DHT22;55898;52.196;4.420;2022-07-12T01:24:27;20.32;70.64
68865;DHT22;55898;52.196;4.420;2022-07-12T01:26:53;20.29;70.80
68865;DHT22;55898;52.196;4.420;2022-07-12T01:29:19;20.26;70.77
68865;DHT22;55898;52.196;4.420;2022-07-12T01:31:45;20.25;70.68
68865;DHT22;55898;52.196;4.420;2022-07-12T01:34:11;20.18;70.79
68865;DHT22;55898;52.196;4.420;2022-07-12T01:36:39;20.11;70.93
68865;DHT22;55898;52.196;4.420;2022-07-12T01:39:04;20.04;71.13
68865;DHT22;55898;52.196;4.420;2022-07-12T01:41:31;20.00;71.32
68865;DHT22;55898;52.196;4.420;2022-07-12T01:43:57;19.93;71.37
68865;DHT22;55898;52.196;4.420;2022-07-12T01:46:23;19.87;71.51
68865;DHT22;55898;52.196;4.420;2022-07-12T01:48:49;19.83;71.51
68865;DHT22;55898;52.196;4.420;2022-07-12T01:51:14;19.78;71.66
68865;DHT22;55898;52.196;4.420;2022-07-12T01:53:40;19.73;71.83
68865;DHT22;55898;52.196;4.420;2022-07-12T01:56:06;19.69;72.02
68865;DHT22;55898;52.196;4.420;2022-07-12T01:58:32;19.63;72.23
68865;DHT22;55898;52.196;4.420;2022-07-12T02:00:58;19.59;72.26
68865;DHT22;55898;52.196;4.420;2022-07-12T02:03:23;19.56;72.30
68865;DHT22;55898;52.196;4.420;2022-07-12T02:05:50;19.50;72.39
68865;DHT22;55898;52.196;4.420;2022-07-12T02:08:16;19.45;72.68
68865;DHT22;55898;52.196;4.420;2022-07-12T02:10:42;19.49;72.59
68865;DHT22;55898;52.196;4.420;2022-07-12T02:13:08;19.47;72.63
68865;DHT22;55898;52.196;4.420;2022-07-12T02:15:34;19.46;72.77
68865;DHT22;55898;52.196;4.420;2022-07-12T02:18:00;19.46;72.73
68865;DHT22;55898;52.196;4.420;2022-07-12T02:20:25;19.45;72.74
68865;DHT22;55898;52.196;4.420;2022-07-12T02:22:51;19.39;72.86
68865;DHT22;55898;52.196;4.420;2022-07-12T02:25:16;19.39;72.89
68865;DHT22;55898;52.196;4.420;2022-07-12T02:27:42;19.37;72.97
68865;DHT22;55898;52.196;4.420;2022-07-12T02:30:09;19.35;72.97
68865;DHT22;55898;52.196;4.420;2022-07-12T02:32:35;19.33;73.00
68865;DHT22;55898;52.196;4.420;2022-07-12T02:35:02;19.26;73.17
68865;DHT22;55898;52.196;4.420;2022-07-12T02:37:27;19.23;73.47
68865;DHT22;55898;52.196;4.420;2022-07-12T02:39:53;19.22;73.48
68865;DHT22;55898;52.196;4.420;2022-07-12T02:42:38;19.20;73.38
68865;DHT22;55898;52.196;4.420;2022-07-12T02:45:05;19.18;73.54
68865;DHT22;55898;52.196;4.420;2022-07-12T02:47:30;19.09;73.45
68865;DHT22;55898;52.196;4.420;2022-07-12T02:49:58;19.08;73.39
68865;DHT22;55898;52.196;4.420;2022-07-12T02:52:24;19.06;73.26
68865;DHT22;55898;52.196;4.420;2022-07-12T02:54:50;18.98;73.49
68865;DHT22;55898;52.196;4.420;2022-07-12T02:57:15;18.92;73.59
68865;DHT22;55898;52.196;4.420;2022-07-12T02:59:41;18.92;73.61
68865;DHT22;55898;52.196;4.420;2022-07-12T03:02:06;18.94;73.66
68865;DHT22;55898;52.196;4.420;2022-07-12T03:04:32;18.95;73.76
68865;DHT22;55898;52.196;4.420;2022-07-12T03:06:57;18.94;73.76
68865;DHT22;55898;52.196;4.420;2022-07-12T03:09:23;18.92;73.74
68865;DHT22;55898;52.196;4.420;2022-07-12T03:11:48;18.85;73.82
68865;DHT22;55898;52.196;4.420;2022-07-12T03:14:14;18.87;73.82
68865;DHT22;55898;52.196;4.420;2022-07-12T03:16:39;18.83;73.77
68865;DHT22;55898;52.196;4.420;2022-07-12T03:19:05;18.77;73.77
68865;DHT22;55898;52.196;4.420;2022-07-12T03:21:30;18.72;73.76
68865;DHT22;55898;52.196;4.420;2022-07-12T03:23:56;18.67;74.02
68865;DHT22;55898;52.196;4.420;2022-07-12T03:26:21;18.65;74.14
68865;DHT22;55898;52.196;4.420;2022-07-12T03:28:47;18.58;73.86
68865;DHT22;55898;52.196;4.420;2022-07-12T03:31:12;18.50;74.11
68865;DHT22;55898;52.196;4.420;2022-07-12T03:33:38;18.48;74.32
68865;DHT22;55898;52.196;4.420;2022-07-12T03:36:04;18.50;74.42
68865;DHT22;55898;52.196;4.420;2022-07-12T03:38:32;18.53;74.41
68865;DHT22;55898;52.196;4.420;2022-07-12T03:40:57;18.51;74.29
68865;DHT22;55898;52.196;4.420;2022-07-12T03:43:23;18.51;74.35
68865;DHT22;55898;52.196;4.420;2022-07-12T03:45:48;18.56;73.98
68865;DHT22;55898;52.196;4.420;2022-07-12T03:48:14;18.48;73.97
68865;DHT22;55898;52.196;4.420;2022-07-12T03:50:39;18.50;74.06
68865;DHT22;55898;52.196;4.420;2022-07-12T03:53:05;18.50;73.99
68865;DHT22;55898;52.196;4.420;2022-07-12T03:55:30;18.50;74.07
68865;DHT22;55898;52.196;4.420;2022-07-12T03:57:56;18.50;73.86
68865;DHT22;55898;52.196;4.420;2022-07-12T04:00:22;18.48;74.04
68865;DHT22;55898;52.196;4.420;2022-07-12T04:02:47;18.50;74.24
68865;DHT22;55898;52.196;4.420;2022-07-12T04:05:13;18.54;74.35
68865;DHT22;55898;52.196;4.420;2022-07-12T04:07:39;18.60;74.41
68865;DHT22;55898;52.196;4.420;2022-07-12T04:10:06;18.63;74.28
68865;DHT22;55898;52.196;4.420;2022-07-12T04:12:33;18.63;74.01
68865;DHT22;55898;52.196;4.420;2022-07-12T04:14:59;18.63;74.10
68865;DHT22;55898;52.196;4.420;2022-07-12T04:17:24;18.65;74.18
68865;DHT22;55898;52.196;4.420;2022-07-12T04:19:50;18.72;74.28
68865;DHT22;55898;52.196;4.420;2022-07-12T04:22:16;18.77;74.13
68865;DHT22;55898;52.196;4.420;2022-07-12T04:24:41;18.81;74.06
68865;DHT22;55898;52.196;4.420;2022-07-12T04:27:06;18.85;73.89
68865;DHT22;55898;52.196;4.420;2022-07-12T04:29:32;18.91;73.92
68865;DHT22;55898;52.196;4.420;2022-07-12T04:31:58;18.96;74.15
68865;DHT22;55898;52.196;4.420;2022-07-12T04:34:23;19.01;73.84
68865;DHT22;55898;52.196;4.420;2022-07-12T04:36:48;19.05;74.17
68865;DHT22;55898;52.196;4.420;2022-07-12T04:39:14;19.08;74.12
68865;DHT22;55898;52.196;4.420;2022-07-12T04:41:40;19.11;74.14
68865;DHT22;55898;52.196;4.420;2022-07-12T04:44:06;19.18;74.00
68865;DHT22;55898;52.196;4.420;2022-07-12T04:46:33;19.25;73.96
68865;DHT22;55898;52.196;4.420;2022-07-12T04:48:59;19.29;73.95
68865;DHT22;55898;52.196;4.420;2022-07-12T04:51:24;19.36;74.11
68865;DHT22;55898;52.196;4.420;2022-07-12T04:53:50;19.43;74.16
68865;DHT22;55898;52.196;4.420;2022-07-12T04:56:15;19.49;74.15
68865;DHT22;55898;52.196;4.420;2022-07-12T04:58:41;19.53;74.04
68865;DHT22;55898;52.196;4.420;2022-07-12T05:01:06;19.56;74.14
68865;DHT22;55898;52.196;4.420;2022-07-12T05:03:32;19.56;73.95
68865;DHT22;55898;52.196;4.420;2022-07-12T05:05:58;19.59;73.83
68865;DHT22;55898;52.196;4.420;2022-07-12T05:08:23;19.57;73.91
68865;DHT22;55898;52.196;4.420;2022-07-12T05:10:49;19.62;73.90
68865;DHT22;55898;52.196;4.420;2022-07-12T05:13:14;19.63;74.05
68865;DHT22;55898;52.196;4.420;2022-07-12T05:15:40;19.66;73.95
68865;DHT22;55898;52.196;4.420;2022-07-12T05:18:05;19.71;73.92
68865;DHT22;55898;52.196;4.420;2022-07-12T05:20:31;19.75;73.96
68865;DHT22;55898;52.196;4.420;2022-07-12T05:22:57;19.83;73.97
68865;DHT22;55898;52.196;4.420;2022-07-12T05:25:22;19.84;73.71
68865;DHT22;55898;52.196;4.420;2022-07-12T05:27:48;19.90;73.64
68865;DHT22;55898;52.196;4.420;2022-07-12T05:30:13;19.91;73.80
68865;DHT22;55898;52.196;4.420;2022-07-12T05:32:39;19.98;73.94
68865;DHT22;55898;52.196;4.420;2022-07-12T05:35:05;20.03;73.95
68865;DHT22;55898;52.196;4.420;2022-07-12T05:37:30;20.07;74.13
68865;DHT22;55898;52.196;4.420;2022-07-12T05:39:56;20.10;74.27
68865;DHT22;55898;52.196;4.420;2022-07-12T05:42:21;20.12;74.29
68865;DHT22;55898;52.196;4.420;2022-07-12T05:44:47;20.15;74.30
68865;DHT22;55898;52.196;4.420;2022-07-12T05:47:12;20.20;74.44
68865;DHT22;55898;52.196;4.420;2022-07-12T05:49:38;20.17;74.25
68865;DHT22;55898;52.196;4.420;2022-07-12T05:52:04;20.20;74.13
68865;DHT22;55898;52.196;4.420;2022-07-12T05:54:48;20.21;74.12
68865;DHT22;55898;52.196;4.420;2022-07-12T05:57:15;20.17;74.09
68865;DHT22;55898;52.196;4.420;2022-07-12T05:59:40;20.14;74.16
68865;DHT22;55898;52.196;4.420;2022-07-12T06:02:06;20.10;73.98
68865;DHT22;55898;52.196;4.420;2022-07-12T06:04:31;20.14;73.94
68865;DHT22;55898;52.196;4.420;2022-07-12T06:06:57;20.15;74.24
68865;DHT22;55898;52.196;4.420;2022-07-12T06:09:22;20.18;74.34
68865;DHT22;55898;52.196;4.420;2022-07-12T06:11:48;20.14;74.43
68865;DHT22;55898;52.196;4.420;2022-07-12T06:14:13;20.17;73.68
68865;DHT22;55898;52.196;4.420;2022-07-12T06:16:39;20.24;73.48
68865;DHT22;55898;52.196;4.420;2022-07-12T06:19:04;20.25;73.39
68865;DHT22;55898;52.196;4.420;2022-07-12T06:21:30;20.31;73.42
68865;DHT22;55898;52.196;4.420;2022-07-12T06:23:55;20.36;73.18
68865;DHT22;55898;52.196;4.420;2022-07-12T06:26:21;20.42;73.20
68865;DHT22;55898;52.196;4.420;2022-07-12T06:28:47;20.43;72.71
68865;DHT22;55898;52.196;4.420;2022-07-12T06:31:12;20.49;72.81
68865;DHT22;55898;52.196;4.420;2022-07-12T06:33:38;20.53;72.48
68865;DHT22;55898;52.196;4.420;2022-07-12T06:36:03;20.62;72.82
68865;DHT22;55898;52.196;4.420;2022-07-12T06:38:29;20.62;72.54
68865;DHT22;55898;52.196;4.420;2022-07-12T06:40:55;20.65;72.40
68865;DHT22;55898;52.196;4.420;2022-07-12T06:43:21;20.72;72.49
68865;DHT22;55898;52.196;4.420;2022-07-12T06:45:46;20.73;72.17
68865;DHT22;55898;52.196;4.420;2022-07-12T06:48:12;20.79;72.21
68865;DHT22;55898;52.196;4.420;2022-07-12T06:50:37;20.84;72.02
68865;DHT22;55898;52.196;4.420;2022-07-12T06:53:03;20.86;72.01
68865;DHT22;55898;52.196;4.420;2022-07-12T06:55:28;20.90;72.09
68865;DHT22;55898;52.196;4.420;2022-07-12T06:57:55;20.94;72.05
68865;DHT22;55898;52.196;4.420;2022-07-12T07:00:21;21.01;71.88
68865;DHT22;55898;52.196;4.420;2022-07-12T07:02:46;21.15;71.69
68865;DHT22;55898;52.196;4.420;2022-07-12T07:05:11;21.23;71.31
68865;DHT22;55898;52.196;4.420;2022-07-12T07:07:37;21.34;71.04
68865;DHT22;55898;52.196;4.420;2022-07-12T07:10:03;21.44;71.09
68865;DHT22;55898;52.196;4.420;2022-07-12T07:12:28;21.51;70.87
68865;DHT22;55898;52.196;4.420;2022-07-12T07:14:54;21.58;70.07
68865;DHT22;55898;52.196;4.420;2022-07-12T07:17:19;21.63;69.75
68865;DHT22;55898;52.196;4.420;2022-07-12T07:19:46;21.68;70.02
68865;DHT22;55898;52.196;4.420;2022-07-12T07:22:12;21.74;70.44
68865;DHT22;55898;52.196;4.420;2022-07-12T07:24:39;21.75;70.13
68865;DHT22;55898;52.196;4.420;2022-07-12T07:27:04;21.75;69.99
68865;DHT22;55898;52.196;4.420;2022-07-12T07:29:30;21.69;69.99
68865;DHT22;55898;52.196;4.420;2022-07-12T07:32:14;21.74;70.07
68865;DHT22;55898;52.196;4.420;2022-07-12T07:34:39;21.75;70.04
68865;DHT22;55898;52.196;4.420;2022-07-12T07:37:08;21.74;69.71
68865;DHT22;55898;52.196;4.420;2022-07-12T07:39:34;21.76;69.88
68865;DHT22;55898;52.196;4.420;2022-07-12T07:42:00;21.82;69.86
68865;DHT22;55898;52.196;4.420;2022-07-12T07:44:25;21.88;69.93
68865;DHT22;55898;52.196;4.420;2022-07-12T07:46:51;21.90;69.20
68865;DHT22;55898;52.196;4.420;2022-07-12T07:49:16;21.99;69.40
68865;DHT22;55898;52.196;4.420;2022-07-12T07:51:42;22.07;68.99
68865;DHT22;55898;52.196;4.420;2022-07-12T07:54:07;22.13;69.72
68865;DHT22;55898;52.196;4.420;2022-07-12T07:56:33;22.14;68.09
68865;DHT22;55898;52.196;4.420;2022-07-12T07:58:58;22.20;68.06
68865;DHT22;55898;52.196;4.420;2022-07-12T08:01:24;22.24;67.38
68865;DHT22;55898;52.196;4.420;2022-07-12T08:04:12;22.32;67.80
68865;DHT22;55898;52.196;4.420;2022-07-12T08:06:39;22.32;67.02
68865;DHT22;55898;52.196;4.420;2022-07-12T08:09:04;22.39;67.16
68865;DHT22;55898;52.196;4.420;2022-07-12T08:11:32;22.41;66.13
68865;DHT22;55898;52.196;4.420;2022-07-12T08:13:58;22.44;66.42
68865;DHT22;55898;52.196;4.420;2022-07-12T08:16:23;22.58;66.36
68865;DHT22;55898;52.196;4.420;2022-07-12T08:18:49;22.69;65.28
68865;DHT22;55898;52.196;4.420;2022-07-12T08:21:14;22.83;64.97
68865;DHT22;55898;52.196;4.420;2022-07-12T08:23:39;23.02;64.61
68865;DHT22;55898;52.196;4.420;2022-07-12T08:26:05;23.19;63.43
68865;DHT22;55898;52.196;4.420;2022-07-12T08:28:30;23.36;63.20
68865;DHT22;55898;52.196;4.420;2022-07-12T08:30:56;23.49;63.41
68865;DHT22;55898;52.196;4.420;2022-07-12T08:33:21;23.63;63.38
68865;DHT22;55898;52.196;4.420;2022-07-12T08:35:47;23.71;63.32
68865;DHT22;55898;52.196;4.420;2022-07-12T08:38:12;23.83;61.98
68865;DHT22;55898;52.196;4.420;2022-07-12T08:40:41;23.93;61.61
68865;DHT22;55898;52.196;4.420;2022-07-12T08:43:07;24.11;61.05
68865;DHT22;55898;52.196;4.420;2022-07-12T08:45:32;24.24;60.74
68865;DHT22;55898;52.196;4.420;2022-07-12T08:47:58;24.41;60.84
68865;DHT22;55898;52.196;4.420;2022-07-12T08:50:23;24.45;60.12
68865;DHT22;55898;52.196;4.420;2022-07-12T08:52:54;24.59;60.25
68865;DHT22;55898;52.196;4.420;2022-07-12T08:55:30;24.58;59.71
68865;DHT22;55898;52.196;4.420;2022-07-12T08:57:58;24.58;58.97
68865;DHT22;55898;52.196;4.420;2022-07-12T09:00:26;24.69;59.73
68865;DHT22;55898;52.196;4.420;2022-07-12T09:02:57;24.69;58.99
68865;DHT22;55898;52.196;4.420;2022-07-12T09:05:25;24.66;59.16
68865;DHT22;55898;52.196;4.420;2022-07-12T09:08:01;24.79;59.08
68865;DHT22;55898;52.196;4.420;2022-07-12T09:10:27;24.75;59.46
68865;DHT22;55898;52.196;4.420;2022-07-12T09:12:53;24.75;58.94
68865;DHT22;55898;52.196;4.420;2022-07-12T09:15:23;24.72;59.40
68865;DHT22;55898;52.196;4.420;2022-07-12T09:18:03;24.77;59.18
68865;DHT22;55898;52.196;4.420;2022-07-12T09:20:32;24.84;59.45
68865;DHT22;55898;52.196;4.420;2022-07-12T09:23:01;24.86;60.43
68865;DHT22;55898;52.196;4.420;2022-07-12T09:25:32;24.89;60.29
68865;DHT22;55898;52.196;4.420;2022-07-12T09:28:00;24.86;59.66
68865;DHT22;55898;52.196;4.420;2022-07-12T09:30:28;24.75;59.22
68865;DHT22;55898;52.196;4.420;2022-07-12T09:33:05;24.77;58.73
68865;DHT22;55898;52.196;4.420;2022-07-12T09:38:38;25.14;58.71
68865;DHT22;55898;52.196;4.420;2022-07-12T09:41:08;25.14;58.05
68865;DHT22;55898;52.196;4.420;2022-07-12T09:43:35;25.21;58.80
68865;DHT22;55898;52.196;4.420;2022-07-12T09:46:00;25.31;59.00
68865;DHT22;55898;52.196;4.420;2022-07-12T09:48:28;25.34;58.63
68865;DHT22;55898;52.196;4.420;2022-07-12T09:50:58;25.35;59.28
68865;DHT22;55898;52.196;4.420;2022-07-12T09:53:32;25.35;56.42
68865;DHT22;55898;52.196;4.420;2022-07-12T09:56:05;25.35;56.23
68865;DHT22;55898;52.196;4.420;2022-07-12T09:58:40;25.44;56.38
68865;DHT22;55898;52.196;4.420;2022-07-12T10:01:09;25.52;55.47
68865;DHT22;55898;52.196;4.420;2022-07-12T10:03:36;25.54;55.79
68865;DHT22;55898;52.196;4.420;2022-07-12T10:06:06;25.57;55.99
68865;DHT22;55898;52.196;4.420;2022-07-12T10:08:33;25.66;56.36
68865;DHT22;55898;52.196;4.420;2022-07-12T10:11:00;25.61;57.38
68865;DHT22;55898;52.196;4.420;2022-07-12T10:13:26;25.71;56.26
68865;DHT22;55898;52.196;4.420;2022-07-12T10:15:58;25.68;54.69
68865;DHT22;55898;52.196;4.420;2022-07-12T10:18:25;25.72;56.21
68865;DHT22;55898;52.196;4.420;2022-07-12T10:20:50;25.79;57.46
68865;DHT22;55898;52.196;4.420;2022-07-12T10:23:35;25.79;58.02
68865;DHT22;55898;52.196;4.420;2022-07-12T10:26:24;25.81;57.50
68865;DHT22;55898;52.196;4.420;2022-07-12T10:29:05;25.82;57.71
68865;DHT22;55898;52.196;4.420;2022-07-12T10:31:36;25.85;57.28
68865;DHT22;55898;52.196;4.420;2022-07-12T10:34:14;25.90;57.59
68865;DHT22;55898;52.196;4.420;2022-07-12T10:44:45;25.90;56.56
68865;DHT22;55898;52.196;4.420;2022-07-12T10:47:12;25.85;57.50
68865;DHT22;55898;52.196;4.420;2022-07-12T10:49:51;26.00;57.64
68865;DHT22;55898;52.196;4.420;2022-07-12T10:52:27;26.07;57.63
68865;DHT22;55898;52.196;4.420;2022-07-12T10:57:47;26.17;57.54
68865;DHT22;55898;52.196;4.420;2022-07-12T11:00:17;26.32;57.33
68865;DHT22;55898;52.196;4.420;2022-07-12T11:02:43;26.47;55.75
68865;DHT22;55898;52.196;4.420;2022-07-12T11:05:09;26.51;55.59
68865;DHT22;55898;52.196;4.420;2022-07-12T11:07:35;26.64;55.49
68865;DHT22;55898;52.196;4.420;2022-07-12T11:10:01;26.75;56.19
68865;DHT22;55898;52.196;4.420;2022-07-12T11:12:30;26.77;54.97
68865;DHT22;55898;52.196;4.420;2022-07-12T11:14:58;27.02;55.94
68865;DHT22;55898;52.196;4.420;2022-07-12T11:17:32;27.25;54.42
68865;DHT22;55898;52.196;4.420;2022-07-12T11:20:05;27.40;53.81
68865;DHT22;55898;52.196;4.420;2022-07-12T11:22:32;27.50;53.46
68865;DHT22;55898;52.196;4.420;2022-07-12T11:24:58;27.54;53.72
68865;DHT22;55898;52.196;4.420;2022-07-12T11:27:26;27.53;54.28
68865;DHT22;55898;52.196;4.420;2022-07-12T11:29:59;27.73;53.17
68865;DHT22;55898;52.196;4.420;2022-07-12T11:32:53;27.91;51.98
68865;DHT22;55898;52.196;4.420;2022-07-12T11:35:23;28.02;51.73
68865;DHT22;55898;52.196;4.420;2022-07-12T11:37:56;28.12;51.42
68865;DHT22;55898;52.196;4.420;2022-07-12T11:40:30;28.17;51.16
68865;DHT22;55898;52.196;4.420;2022-07-12T11:43:00;28.25;50.96
68865;DHT22;55898;52.196;4.420;2022-07-12T11:45:33;28.46;51.17
68865;DHT22;55898;52.196;4.420;2022-07-12T11:48:03;28.77;49.67
68865;DHT22;55898;52.196;4.420;2022-07-12T11:50:29;29.41;48.59
68865;DHT22;55898;52.196;4.420;2022-07-12T11:52:56;29.83;46.46
68865;DHT22;55898;52.196;4.420;2022-07-12T11:55:21;30.26;46.53
68865;DHT22;55898;52.196;4.420;2022-07-12T11:57:48;31.07;44.74
68865;DHT22;55898;52.196;4.420;2022-07-12T12:00:19;31.83;42.20
68865;DHT22;55898;52.196;4.420;2022-07-12T12:02:51;32.73;41.02
68865;DHT22;55898;52.196;4.420;2022-07-12T12:05:17;33.29;39.74
68865;DHT22;55898;52.196;4.420;2022-07-12T12:07:43;33.78;38.44
68865;DHT22;55898;52.196;4.420;2022-07-12T12:10:14;33.21;38.11
68865;DHT22;55898;52.196;4.420;2022-07-12T12:12:45;32.86;39.07
68865;DHT22;55898;52.196;4.420;2022-07-12T12:15:17;32.80;40.24
68865;DHT22;55898;52.196;4.420;2022-07-12T12:17:53;32.38;41.30
68865;DHT22;55898;52.196;4.420;2022-07-12T12:20:28;31.98;41.92
68865;DHT22;55898;52.196;4.420;2022-07-12T12:22:56;31.62;43.14
68865;DHT22;55898;52.196;4.420;2022-07-12T12:25:23;31.32;42.27
68865;DHT22;55898;52.196;4.420;2022-07-12T12:28:01;30.89;42.38
68865;DHT22;55898;52.196;4.420;2022-07-12T12:30:29;30.71;43.28
68865;DHT22;55898;52.196;4.420;2022-07-12T12:32:57;30.63;43.99
68865;DHT22;55898;52.196;4.420;2022-07-12T12:35:36;30.51;43.78
68865;DHT22;55898;52.196;4.420;2022-07-12T12:38:15;30.16;44.54
68865;DHT22;55898;52.196;4.420;2022-07-12T12:40:50;29.95;44.76
68865;DHT22;55898;52.196;4.420;2022-07-12T12:43:20;29.71;45.63
68865;DHT22;55898;52.196;4.420;2022-07-12T12:45:53;29.72;46.04
68865;DHT22;55898;52.196;4.420;2022-07-12T12:48:24;29.72;46.15
68865;DHT22;55898;52.196;4.420;2022-07-12T12:50:53;29.66;47.14
68865;DHT22;55898;52.196;4.420;2022-07-12T12:53:22;29.62;46.76
68865;DHT22;55898;52.196;4.420;2022-07-12T12:55:50;29.55;47.86
68865;DHT22;55898;52.196;4.420;2022-07-12T12:58:18;29.47;47.31
68865;DHT22;55898;52.196;4.420;2022-07-12T13:00:47;29.43;47.66
68865;DHT22;55898;52.196;4.420;2022-07-12T13:03:14;29.50;47.22
68865;DHT22;55898;52.196;4.420;2022-07-12T13:05:40;29.65;47.03
68865;DHT22;55898;52.196;4.420;2022-07-12T13:08:08;29.83;45.83
68865;DHT22;55898;52.196;4.420;2022-07-12T13:10:35;30.20;45.74
68865;DHT22;55898;52.196;4.420;2022-07-12T13:13:05;30.33;44.67
68865;DHT22;55898;52.196;4.420;2022-07-12T13:15:32;30.50;45.15
68865;DHT22;55898;52.196;4.420;2022-07-12T13:17:58;30.45;45.42
68865;DHT22;55898;52.196;4.420;2022-07-12T13:20:25;30.44;45.31
68865;DHT22;55898;52.196;4.420;2022-07-12T13:22:51;30.41;46.28
68865;DHT22;55898;52.196;4.420;2022-07-12T13:25:17;30.45;45.24
68865;DHT22;55898;52.196;4.420;2022-07-12T13:27:44;30.33;44.86
68865;DHT22;55898;52.196;4.420;2022-07-12T13:30:12;30.22;46.21
68865;DHT22;55898;52.196;4.420;2022-07-12T13:32:38;30.10;45.88
68865;DHT22;55898;52.196;4.420;2022-07-12T13:35:06;29.98;46.20
68865;DHT22;55898;52.196;4.420;2022-07-12T13:37:33;29.92;46.83
68865;DHT22;55898;52.196;4.420;2022-07-12T13:39:59;30.02;46.54
68865;DHT22;55898;52.196;4.420;2022-07-12T13:42:49;29.96;45.22
68865;DHT22;55898;52.196;4.420;2022-07-12T13:45:20;29.92;45.66
68865;DHT22;55898;52.196;4.420;2022-07-12T13:47:47;29.86;45.39
68865;DHT22;55898;52.196;4.420;2022-07-12T13:50:15;29.76;45.36
68865;DHT22;55898;52.196;4.420;2022-07-12T13:52:42;29.71;46.20
68865;DHT22;55898;52.196;4.420;2022-07-12T13:55:09;29.83;46.59
68865;DHT22;55898;52.196;4.420;2022-07-12T13:57:38;29.75;46.35
68865;DHT22;55898;52.196;4.420;2022-07-12T14:00:07;29.65;46.36
68865;DHT22;55898;52.196;4.420;2022-07-12T14:02:38;29.48;46.76
68865;DHT22;55898;52.196;4.420;2022-07-12T14:05:05;29.31;47.22
68865;DHT22;55898;52.196;4.420;2022-07-12T14:07:31;29.25;47.36
68865;DHT22;55898;52.196;4.420;2022-07-12T14:09:57;29.07;47.48
68865;DHT22;55898;52.196;4.420;2022-07-12T14:12:23;28.90;48.43
68865;DHT22;55898;52.196;4.420;2022-07-12T14:14:48;28.65;47.13
68865;DHT22;55898;52.196;4.420;2022-07-12T14:17:32;28.51;48.18
68865;DHT22;55898;52.196;4.420;2022-07-12T14:19:59;28.38;47.98
68865;DHT22;55898;52.196;4.420;2022-07-12T14:22:25;28.46;48.64
68865;DHT22;55898;52.196;4.420;2022-07-12T14:24:51;28.67;47.73
68865;DHT22;55898;52.196;4.420;2022-07-12T14:27:16;29.13;47.25
68865;DHT22;55898;52.196;4.420;2022-07-12T14:29:42;29.45;45.90
68865;DHT22;55898;52.196;4.420;2022-07-12T14:32:07;29.75;45.45
68865;DHT22;55898;52.196;4.420;2022-07-12T14:34:33;30.53;42.90
68865;DHT22;55898;52.196;4.420;2022-07-12T14:36:58;31.39;40.65
68865;DHT22;55898;52.196;4.420;2022-07-12T14:39:24;31.94;41.01
68865;DHT22;55898;52.196;4.420;2022-07-12T14:41:49;32.17;40.62
68865;DHT22;55898;52.196;4.420;2022-07-12T14:44:15;32.14;40.10
68865;DHT22;55898;52.196;4.420;2022-07-12T14:46:40;31.93;40.01
68865;DHT22;55898;52.196;4.420;2022-07-12T14:49:06;31.94;40.67
68865;DHT22;55898;52.196;4.420;2022-07-12T14:51:31;31.98;39.91
68865;DHT22;55898;52.196;4.420;2022-07-12T14:53:57;31.91;38.73
68865;DHT22;55898;52.196;4.420;2022-07-12T14:56:23;31.96;39.71
68865;DHT22;55898;52.196;4.420;2022-07-12T14:58:48;32.04;39.19
68865;DHT22;55898;52.196;4.420;2022-07-12T15:01:14;31.98;38.94
68865;DHT22;55898;52.196;4.420;2022-07-12T15:03:39;31.83;39.45
68865;DHT22;55898;52.196;4.420;2022-07-12T15:06:05;31.62;39.37
68865;DHT22;55898;52.196;4.420;2022-07-12T15:08:30;31.38;40.32
68865;DHT22;55898;52.196;4.420;2022-07-12T15:10:56;31.18;40.27
68865;DHT22;55898;52.196;4.420;2022-07-12T15:13:25;30.95;39.73
68865;DHT22;55898;52.196;4.420;2022-07-12T15:15:53;30.74;40.95
68865;DHT22;55898;52.196;4.420;2022-07-12T15:18:18;30.51;41.47
68865;DHT22;55898;52.196;4.420;2022-07-12T15:20:44;30.33;41.36
68865;DHT22;55898;52.196;4.420;2022-07-12T15:23:09;30.19;42.57
68865;DHT22;55898;52.196;4.420;2022-07-12T15:25:35;30.02;42.30
68865;DHT22;55898;52.196;4.420;2022-07-12T15:28:01;29.88;41.38
68865;DHT22;55898;52.196;4.420;2022-07-12T15:30:26;29.75;43.41
68865;DHT22;55898;52.196;4.420;2022-07-12T15:32:52;29.64;43.42
68865;DHT22;55898;52.196;4.420;2022-07-12T15:35:21;29.55;42.38
68865;DHT22;55898;52.196;4.420;2022-07-12T15:37:47;29.51;43.04
68865;DHT22;55898;52.196;4.420;2022-07-12T15:40:12;29.47;43.37
68865;DHT22;55898;52.196;4.420;2022-07-12T15:42:38;29.31;42.35
68865;DHT22;55898;52.196;4.420;2022-07-12T15:45:04;29.10;43.32